createdAt,value
2019-02-26T00:01:59.931Z,4.94
2019-02-26T00:07:01.628Z,4.73
2019-02-26T00:12:06.448Z,4.73
2019-02-26T00:17:13.041Z,4.72
2019-02-26T00:22:16.579Z,4.60
2019-02-26T00:27:19.594Z,4.94
2019-02-26T00:32:27.134Z,4.93
2019-02-26T00:37:31.368Z,5.08
2019-02-26T00:42:36.159Z,5.06
2019-02-26T00:47:39.545Z,4.71
2019-02-26T00:52:43.548Z,4.67
2019-02-26T00:57:45.560Z,4.40
2019-02-26T01:02:48.897Z,4.77
2019-02-26T01:07:52.564Z,4.70
2019-02-26T01:12:56.494Z,5.08
2019-02-26T01:18:01.428Z,4.71
2019-02-26T01:23:03.344Z,4.34
2019-02-26T01:28:08.384Z,4.15
2019-02-26T01:33:10.598Z,4.11
2019-02-26T01:38:14.836Z,4.16
2019-02-26T01:43:20.033Z,4.18
2019-02-26T01:48:24.301Z,4.30
2019-02-26T01:53:28.426Z,4.23
2019-02-26T01:58:33.481Z,4.17
2019-02-26T02:03:35.739Z,4.61
2019-02-26T02:08:41.305Z,4.54
2019-02-26T02:13:43.777Z,4.59
2019-02-26T02:18:48.080Z,4.78
2019-02-26T02:23:50.901Z,4.51
2019-02-26T02:28:56.506Z,4.56
2019-02-26T02:34:00.264Z,4.45
2019-02-26T02:39:02.303Z,4.21
2019-02-26T02:44:07.524Z,4.05
2019-02-26T02:49:10.399Z,3.77
2019-02-26T02:54:20.853Z,4.04
2019-02-26T02:59:22.318Z,3.97
2019-02-26T03:04:31.118Z,3.94
2019-02-26T03:09:43.231Z,4.13
2019-02-26T03:14:51.069Z,4.11
2019-02-26T03:19:55.860Z,3.68
2019-02-26T03:24:59.531Z,3.83
2019-02-26T03:30:06.943Z,3.68
2019-02-26T03:35:10.254Z,3.65
2019-02-26T03:40:17.308Z,3.58
2019-02-26T03:45:24.794Z,3.79
2019-02-26T03:50:28.688Z,3.54
2019-02-26T03:55:33.357Z,3.61
2019-02-26T04:00:37.636Z,3.44
2019-02-26T04:05:39.192Z,3.45
2019-02-26T04:10:41.379Z,3.40
2019-02-26T04:15:43.695Z,3.35
2019-02-26T04:20:45.815Z,3.27
2019-02-26T04:26:34.427Z,3.68
2019-02-26T04:32:23.559Z,3.80
2019-02-26T04:38:26.687Z,3.66
2019-02-26T04:44:31.348Z,3.42
2019-02-26T04:49:36.194Z,3.36
2019-02-26T04:54:39.858Z,3.21
2019-02-26T04:59:43.924Z,3.17
2019-02-26T05:04:52.648Z,3.13
2019-02-26T05:09:56.904Z,3.35
2019-02-26T05:15:00.760Z,3.56
2019-02-26T05:20:07.295Z,3.33
2019-02-26T05:25:17.049Z,3.29
2019-02-26T05:30:21.723Z,3.12
2019-02-26T05:35:25.276Z,3.25
2019-02-26T05:40:30.472Z,3.14
2019-02-26T05:45:35.759Z,3.23
2019-02-26T05:50:38.462Z,3.24
2019-02-26T05:55:47.782Z,3.32
2019-02-26T06:00:49.818Z,3.27
2019-02-26T06:05:54.933Z,3.22
2019-02-26T06:11:00.173Z,3.55
2019-02-26T06:16:04.790Z,3.50
2019-02-26T06:21:10.233Z,3.53
2019-02-26T06:26:17.859Z,3.59
2019-02-26T06:31:22.090Z,3.60
2019-02-26T06:36:25.781Z,3.59
2019-02-26T06:41:32.084Z,3.56
2019-02-26T06:46:35.915Z,3.85
2019-02-26T06:51:40.483Z,4.26
2019-02-26T06:56:46.121Z,4.36
2019-02-26T07:01:55.582Z,4.46
2019-02-26T07:07:04.439Z,4.40
2019-02-26T07:12:08.745Z,4.69
2019-02-26T07:17:13.681Z,4.82
2019-02-26T07:22:16.488Z,4.84
2019-02-26T07:27:22.911Z,4.98
2019-02-26T07:32:28.920Z,5.06
2019-02-26T07:37:33.266Z,5.31
2019-02-26T07:42:37.281Z,5.35
2019-02-26T07:47:41.142Z,5.52
2019-02-26T07:52:51.665Z,5.85
2019-02-26T07:57:53.389Z,6.01
2019-02-26T08:02:58.023Z,6.25
2019-02-26T08:08:00.863Z,6.39
2019-02-26T08:13:03.900Z,6.56
2019-02-26T08:18:09.504Z,6.75
2019-02-26T08:23:19.896Z,7.02
2019-02-26T08:28:24.824Z,7.31
2019-02-26T08:33:27.929Z,7.72
2019-02-26T08:38:30.310Z,7.83
2019-02-26T08:43:34.201Z,8.08
2019-02-26T08:48:36.286Z,8.25
2019-02-26T08:53:41.094Z,8.55
2019-02-26T08:58:45.355Z,8.65
2019-02-26T09:03:50.690Z,8.90
2019-02-26T09:08:55.155Z,9.01
2019-02-26T09:13:59.394Z,9.41
2019-02-26T09:19:01.654Z,9.43
2019-02-26T09:24:05.406Z,9.66
2019-02-26T09:29:12.572Z,9.77
2019-02-26T09:34:16.984Z,9.80
2019-02-26T09:39:22.946Z,10.13
2019-02-26T09:44:28.638Z,10.31
2019-02-26T09:49:33.147Z,10.25
2019-02-26T09:54:40.453Z,10.52
2019-02-26T09:59:39.988Z,10.52
2019-02-26T10:04:45.515Z,10.60
2019-02-26T10:09:48.580Z,10.99
2019-02-26T10:14:52.297Z,10.91
2019-02-26T10:19:59.353Z,11.09
2019-02-26T10:25:04.627Z,11.20
2019-02-26T10:30:11.293Z,11.16
2019-02-26T10:35:18.042Z,11.45
2019-02-26T10:40:19.713Z,11.56
2019-02-26T10:45:23.683Z,11.65
2019-02-26T10:50:31.130Z,11.95
2019-02-26T10:55:38.410Z,12.09
2019-02-26T11:00:38.147Z,12.32
2019-02-26T11:05:45.037Z,12.82
2019-02-26T11:10:52.194Z,12.87
2019-02-26T11:15:56.594Z,12.71
2019-02-26T11:21:00.840Z,12.90
2019-02-26T11:26:06.113Z,13.05
2019-02-26T11:31:14.042Z,13.36
2019-02-26T11:36:16.805Z,13.73
2019-02-26T11:41:18.960Z,13.94
2019-02-26T11:46:23.094Z,13.94
2019-02-26T11:51:24.946Z,13.86
2019-02-26T11:56:29.028Z,13.70
2019-02-26T12:01:32.237Z,13.67
2019-02-26T12:06:42.410Z,13.78
2019-02-26T12:11:44.621Z,14.03
2019-02-26T12:16:46.745Z,13.99
2019-02-26T12:21:49.513Z,14.00
2019-02-26T12:26:57.287Z,14.59
2019-02-26T12:32:04.578Z,14.65
2019-02-26T12:37:11.163Z,14.37
2019-02-26T12:42:18.474Z,14.67
2019-02-26T12:47:24.471Z,15.01
2019-02-26T12:52:26.915Z,14.69
2019-02-26T12:57:29.659Z,15.12
2019-02-26T13:02:36.924Z,14.92
2019-02-26T13:07:38.362Z,15.11
2019-02-26T13:12:47.133Z,15.41
2019-02-26T13:17:52.370Z,15.24
2019-02-26T13:23:00.594Z,15.63
2019-02-26T13:27:59.860Z,15.15
2019-02-26T13:33:05.239Z,15.49
2019-02-26T13:38:09.170Z,15.08
2019-02-26T13:43:13.931Z,15.23
2019-02-26T13:48:19.728Z,15.82
2019-02-26T13:53:26.575Z,15.33
2019-02-26T13:58:34.036Z,15.34
2019-02-26T14:03:39.210Z,15.39
2019-02-26T14:08:41.278Z,15.47
2019-02-26T14:13:43.314Z,15.45
2019-02-26T14:18:48.267Z,15.64
2019-02-26T14:23:52.788Z,15.31
2019-02-26T14:28:56.294Z,15.25
2019-02-26T14:34:00.141Z,15.47
2019-02-26T14:39:04.089Z,15.24
2019-02-26T14:44:06.145Z,15.82
2019-02-26T14:49:08.206Z,15.24
2019-02-26T14:54:10.501Z,15.27
2019-02-26T14:59:12.586Z,15.39
2019-02-26T15:04:14.860Z,15.38
2019-02-26T15:09:18.791Z,15.53
2019-02-26T15:14:23.917Z,15.87
2019-02-26T15:19:30.437Z,15.33
2019-02-26T15:24:40.695Z,15.47
2019-02-26T15:29:42.835Z,15.33
2019-02-26T15:34:45.103Z,15.44
2019-02-26T15:39:47.146Z,15.67
2019-02-26T15:44:49.178Z,15.31
2019-02-26T15:49:56.168Z,15.28
2019-02-26T15:55:01.034Z,15.15
2019-02-26T16:00:06.186Z,14.91
2019-02-26T16:05:11.019Z,15.15
2019-02-26T16:10:13.445Z,15.02
2019-02-26T16:15:17.528Z,14.90
2019-02-26T16:20:21.550Z,14.79
2019-02-26T16:25:26.781Z,14.84
2019-02-26T16:30:30.598Z,14.66
2019-02-26T16:35:37.258Z,14.52
2019-02-26T16:40:39.317Z,14.70
2019-02-26T16:45:45.761Z,14.53
2019-02-26T16:50:52.311Z,14.41
2019-02-26T16:55:54.681Z,14.21
2019-02-26T17:00:56.707Z,14.12
2019-02-26T17:05:59.156Z,13.97
2019-02-26T17:11:01.219Z,13.67
2019-02-26T17:16:05.745Z,13.50
2019-02-26T17:21:07.818Z,13.32
2019-02-26T17:26:09.920Z,12.96
2019-02-26T17:31:11.929Z,12.71
2019-02-26T17:36:20.861Z,12.43
2019-02-26T17:41:25.786Z,12.28
2019-02-26T17:46:28.101Z,12.28
2019-02-26T17:51:34.096Z,12.21
2019-02-26T17:56:39.154Z,11.91
2019-02-26T18:01:44.456Z,11.87
2019-02-26T18:06:46.512Z,11.57
2019-02-26T18:11:48.937Z,11.50
2019-02-26T18:16:51.132Z,11.44
2019-02-26T18:21:59.186Z,11.44
2019-02-26T18:27:03.682Z,11.14
2019-02-26T18:32:05.762Z,11.16
2019-02-26T18:37:07.880Z,11.12
2019-02-26T18:42:09.895Z,10.87
2019-02-26T18:47:14.013Z,10.63
2019-02-26T18:52:16.635Z,10.48
2019-02-26T18:57:22.690Z,10.46
2019-02-26T19:02:26.311Z,10.36
2019-02-26T19:07:33.105Z,10.51
2019-02-26T19:12:33.917Z,9.79
2019-02-26T19:17:36.088Z,10.00
2019-02-26T19:22:43.211Z,10.02
2019-02-26T19:27:45.343Z,10.07
2019-02-26T19:32:48.300Z,9.89
2019-02-26T19:37:57.124Z,9.61
2019-02-26T19:42:59.520Z,9.61
2019-02-26T19:48:01.629Z,9.69
2019-02-26T19:53:06.006Z,9.44
2019-02-26T19:58:09.711Z,9.39
2019-02-26T20:03:13.139Z,9.34
2019-02-26T20:08:17.837Z,9.24
2019-02-26T20:13:19.910Z,9.24
2019-02-26T20:18:25.843Z,9.17
2019-02-26T20:23:27.306Z,9.11
2019-02-26T20:28:29.325Z,9.06
2019-02-26T20:33:31.621Z,9.11
2019-02-26T20:38:35.289Z,9.07
2019-02-26T20:43:39.799Z,8.83
2019-02-26T20:48:41.818Z,8.75
2019-02-26T20:53:44.509Z,8.62
2019-02-26T20:58:46.698Z,8.68
2019-02-26T21:03:49.895Z,8.44
2019-02-26T21:08:53.319Z,8.41
2019-02-26T21:13:58.949Z,8.40
2019-02-26T21:19:02.873Z,8.22
2019-02-26T21:24:08.997Z,8.08
2019-02-26T21:29:15.715Z,8.09
2019-02-26T21:36:36.613Z,8.18
2019-02-26T21:41:40.775Z,8.00
2019-02-26T21:46:43.033Z,7.91
2019-02-26T21:51:47.803Z,7.93
2019-02-26T21:56:51.877Z,7.76
2019-02-26T22:01:53.988Z,7.48
2019-02-26T22:06:56.191Z,7.59
2019-02-26T22:11:58.462Z,7.55
2019-02-26T22:17:00.817Z,7.46
2019-02-26T22:22:05.298Z,7.45
2019-02-26T22:27:13.453Z,7.49
2019-02-26T22:32:21.762Z,7.30
2019-02-26T22:37:25.996Z,7.19
2019-02-26T22:42:28.139Z,7.07
2019-02-26T22:47:30.142Z,6.87
2019-02-26T22:52:35.199Z,6.87
2019-02-26T22:57:37.221Z,6.77
2019-02-26T23:02:40.819Z,6.80
2019-02-26T23:07:46.452Z,6.65
2019-02-26T23:12:48.630Z,6.52
2019-02-26T23:17:58.208Z,6.56
2019-02-26T23:22:57.820Z,6.45
2019-02-26T23:27:59.858Z,6.32
2019-02-26T23:33:07.853Z,6.24
2019-02-26T23:38:14.776Z,6.23
2019-02-26T23:43:18.892Z,6.18
2019-02-26T23:48:20.893Z,6.18
2019-02-26T23:53:22.961Z,6.04
2019-02-26T23:58:30.713Z,6.08
